^^
Grace C. Lehan Memorial Weather Station Historical Data
Daily Summary for May 25, 2021 Units:  Metric    English   Both
Daily Weekly Monthly Yearly
  High: Low: Average:
Temperature: 8.2 °C 0.6 °C 5.8 °C
Dew Point: 3.4 °C -7.6 °C -3.7 °C
Humidity: 80% 36% 51%
Wind Speed: 23.7km/h 0km/h 8.9km/h
Wind Gust: 48.3km/h - -
Wind- - WNW
Pressure: 1023.2 hPa 1003.6 hPa -
Precipitation: 0 mm    
 
 
Tabular Data for May 25, 2021
Time Temperature Dew Point Pressure Wind Wind Speed Wind Gust Humidity Rainfall Rate (Hourly) solar
00:04 6.7 °C 3.4 °C 1004.3 hPa SW 0.8 km/h 4.8 km/h 80% 0 mm 0 W/m2
00:09 6.7 °C 3.4 °C 1004.3 hPa SW 3.5 km/h 11.3 km/h 79.5% 0 mm 0 W/m2
00:14 6.8 °C 3.4 °C 1003.9 hPa SW 2.1 km/h 11.3 km/h 79% 0 mm 0 W/m2
00:19 6.8 °C 3.4 °C 1003.9 hPa SW 0.5 km/h 11.3 km/h 78.6% 0 mm 0 W/m2
00:24 7 °C 3.3 °C 1003.9 hPa SW 2.9 km/h 11.3 km/h 77.7% 0 mm 0 W/m2
00:29 7.1 °C 3.3 °C 1003.9 hPa SW 0.6 km/h 11.3 km/h 77% 0 mm 0 W/m2
00:34 7.2 °C 3.3 °C 1003.9 hPa SW 1 km/h 11.3 km/h 76.2% 0 mm 0 W/m2
00:39 7.2 °C 3.3 °C 1003.9 hPa SW 1.1 km/h 9.7 km/h 75.9% 0 mm 0 W/m2
00:44 7.3 °C 3.2 °C 1003.9 hPa SW 0.5 km/h 9.7 km/h 75.2% 0 mm 0 W/m2
00:49 7.4 °C 3.2 °C 1003.9 hPa SW 1 km/h 9.7 km/h 74.5% 0 mm 0 W/m2
00:54 7.4 °C 3.1 °C 1003.9 hPa SW 0.6 km/h 9.7 km/h 74% 0 mm 0 W/m2
00:59 7.6 °C 3.1 °C 1003.9 hPa SW 0.6 km/h 9.7 km/h 73.4% 0 mm 0 W/m2
01:04 7.6 °C 3.1 °C 1003.9 hPa SW 1 km/h 17.7 km/h 73% 0 mm 0 W/m2
01:09 7.6 °C 3.1 °C 1003.9 hPa SW 1.4 km/h 17.7 km/h 72.9% 0 mm 0 W/m2
01:14 7.7 °C 2.9 °C 1003.9 hPa SW 1.1 km/h 17.7 km/h 72% 0 mm 0 W/m2
01:19 7.7 °C 3 °C 1003.6 hPa SW 0.8 km/h 17.7 km/h 72% 0 mm 0 W/m2
01:24 7.8 °C 3.1 °C 1003.9 hPa SW 0.6 km/h 17.7 km/h 72% 0 mm 0 W/m2
01:29 7.8 °C 3.1 °C 1003.9 hPa SW 2.4 km/h 17.7 km/h 72% 0 mm 0 W/m2
01:34 7.8 °C 2.9 °C 1003.9 hPa WSW 1.6 km/h 17.7 km/h 71.2% 0 mm 0 W/m2
01:39 7.8 °C 2.9 °C 1004.3 hPa WSW 1.6 km/h 11.3 km/h 71% 0 mm 0 W/m2
01:44 7.8 °C 2.9 °C 1004.3 hPa SW 0.5 km/h 11.3 km/h 71% 0 mm 0 W/m2
01:49 7.8 °C 2.9 °C 1004.3 hPa SW 0.8 km/h 11.3 km/h 71% 0 mm 0 W/m2
01:54 7.8 °C 2.9 °C 1004.3 hPa SW 0.6 km/h 11.3 km/h 71% 0 mm 0 W/m2
01:59 7.8 °C 2.8 °C 1004.3 hPa Calm   11.3 km/h 71% 0 mm 0 W/m2
02:04 7.7 °C 2.8 °C 1004.6 hPa SW 0.2 km/h 11.3 km/h 71% 0 mm 0 W/m2
02:09 7.7 °C 2.8 °C 1004.6 hPa SW 0.2 km/h 3.2 km/h 71% 0 mm 0 W/m2
02:14 7.6 °C 2.8 °C 1004.6 hPa SW 0.2 km/h 4.8 km/h 71.5% 0 mm 0 W/m2
02:19 7.6 °C 2.8 °C 1005 hPa SW 0.3 km/h 6.4 km/h 72% 0 mm 0 W/m2
02:24 7.6 °C 2.7 °C 1005 hPa SW 0.5 km/h 6.4 km/h 71.1% 0 mm 0 W/m2
02:29 7.6 °C 2.7 °C 1005.3 hPa SW 0.2 km/h 6.4 km/h 71% 0 mm 0 W/m2
02:34 7.6 °C 2.7 °C 1005.3 hPa West 4.7 km/h 20.9 km/h 71% 0 mm 0 W/m2
02:39 7.7 °C 2.6 °C 1005.3 hPa West 1.1 km/h 20.9 km/h 70% 0 mm 0 W/m2
02:44 7.8 °C 2.4 °C 1005.6 hPa West 4.5 km/h 20.9 km/h 68.6% 0 mm 0 W/m2
02:49 8 °C 2.3 °C 1005.6 hPa West 3.2 km/h 24.1 km/h 67.1% 0 mm 0 W/m2
02:54 8.1 °C 2.2 °C 1005.6 hPa West 1.6 km/h 24.1 km/h 66% 0 mm 0 W/m2
02:59 8.2 °C 2 °C 1005.6 hPa WNW 2.1 km/h 24.1 km/h 65% 0 mm 0 W/m2
03:04 8.2 °C 1.7 °C 1006 hPa WNW 6.1 km/h 24.1 km/h 63.8% 0 mm 0 W/m2
03:09 8.2 °C 1.6 °C 1006 hPa WNW 1.3 km/h 19.3 km/h 63% 0 mm 0 W/m2
03:14 8.2 °C 1.4 °C 1006 hPa West 3.2 km/h 19.3 km/h 62.1% 0 mm 0 W/m2
03:19 8.2 °C 1.3 °C 1006.3 hPa WNW 4.7 km/h 19.3 km/h 61.8% 0 mm 0 W/m2
03:24 8.2 °C 1.2 °C 1006.7 hPa West 0.2 km/h 19.3 km/h 61% 0 mm 0 W/m2
03:29 8.2 °C 1.1 °C 1006.7 hPa WNW 4 km/h 19.3 km/h 60.9% 0 mm 0 W/m2
03:34 8.1 °C 0.8 °C 1007 hPa WNW 7.1 km/h 20.9 km/h 59.8% 0 mm 0 W/m2
03:39 8.1 °C 0.6 °C 1007 hPa WNW 3.1 km/h 20.9 km/h 59% 0 mm 0 W/m2
03:44 8.1 °C 0.6 °C 1007 hPa NW 8 km/h 20.9 km/h 59% 0 mm 0 W/m2
03:49 8.1 °C 0.3 °C 1007.3 hPa WNW 12.1 km/h 29 km/h 58% 0 mm 0 W/m2
03:54 8.2 °C 0.2 °C 1007.3 hPa WNW 14 km/h 30.6 km/h 57% 0 mm 0 W/m2
03:59 8.2 °C 0.2 °C 1007.7 hPa WNW 11.7 km/h 30.6 km/h 57% 0 mm 0 W/m2
04:09 8 °C -0.1 °C 1008 hPa NW 6 km/h 27.4 km/h 56.6% 0 mm 0 W/m2
04:14 7.9 °C -0.1 °C 1008 hPa NW 4.7 km/h 27.4 km/h 56.9% 0 mm 0 W/m2
04:19 7.7 °C -0.2 °C 1008.4 hPa WNW 7.2 km/h 27.4 km/h 57% 0 mm 0 W/m2
04:24 7.6 °C -0.4 °C 1008.7 hPa NW 12.9 km/h 35.4 km/h 57% 0 mm 0 W/m2
04:29 7.4 °C -0.6 °C 1009 hPa NW 17.4 km/h 45.1 km/h 56.9% 0 mm 0 W/m2
04:34 7.2 °C -0.9 °C 1009.4 hPa NW 18 km/h 45.1 km/h 56% 0 mm 0 W/m2
04:39 7.1 °C -0.9 °C 1009.7 hPa WNW 23.5 km/h 40.2 km/h 56.6% 0 mm 0 W/m2
04:44 6.9 °C -0.8 °C 1009.7 hPa WNW 16.9 km/h 40.2 km/h 57.6% 0 mm 0 W/m2
04:49 6.8 °C -0.9 °C 1010 hPa NW 15.9 km/h 40.2 km/h 58% 0 mm 0 W/m2
04:54 6.7 °C -1 °C 1010.4 hPa NW 23.7 km/h 40.2 km/h 58.1% 0 mm 0 W/m2
04:59 6.4 °C -1.3 °C 1010.4 hPa NW 22.2 km/h 40.2 km/h 57.8% 0 mm 0 W/m2
05:04 6.2 °C -1.6 °C 1010.7 hPa WNW 17.9 km/h 40.2 km/h 57.4% 0 mm 0 W/m2
05:09 5.9 °C -1.9 °C 1010.7 hPa WNW 21.4 km/h 37 km/h 57.3% 0 mm 0 W/m2
05:14 5.7 °C -2.1 °C 1011.1 hPa WNW 23.5 km/h 46.7 km/h 57% 0 mm 0 W/m2
05:19 5.6 °C -2.1 °C 1011.1 hPa NW 15.6 km/h 46.7 km/h 57.9% 0 mm 0 W/m2
05:24 5.5 °C -2.1 °C 1011.1 hPa NW 15.3 km/h 46.7 km/h 58% 0 mm 0 W/m2
05:29 5.4 °C -2.2 °C 1011.1 hPa NW 19 km/h 46.7 km/h 58% 0 mm 0 W/m2
05:34 5.4 °C -2.2 °C 1011.1 hPa WNW 19.8 km/h 46.7 km/h 58% 0 mm 0 W/m2
05:39 5.3 °C -2.3 °C 1011.4 hPa WNW 19.5 km/h 40.2 km/h 58% 0 mm 0 W/m2
05:44 5.3 °C -2.3 °C 1011.4 hPa WNW 15.6 km/h 40.2 km/h 58% 0 mm 0 W/m2
05:49 5.3 °C -2.3 °C 1011.4 hPa WNW 19 km/h 46.7 km/h 58.2% 0 mm 0 W/m2
05:54 5.3 °C -2.2 °C 1011.4 hPa WNW 16.9 km/h 46.7 km/h 58.4% 0 mm 0 W/m2
05:59 5.2 °C -2.4 °C 1011.7 hPa WNW 16.4 km/h 46.7 km/h 58% 0 mm 0 W/m2
06:04 5.1 °C -2.3 °C 1011.7 hPa WNW 14.6 km/h 46.7 km/h 58.7% 0 mm 0 W/m2
06:09 5.1 °C -2.3 °C 1012.1 hPa NW 14 km/h 33.8 km/h 58.8% 0 mm 0 W/m2
06:14 5 °C -2.3 °C 1012.1 hPa NW 15.6 km/h 33.8 km/h 59% 0 mm 0 W/m2
06:19 5 °C -2.4 °C 1012.1 hPa NW 14.6 km/h 33.8 km/h 58.8% 0 mm 0 W/m2
06:24 4.9 °C -2.7 °C 1012.4 hPa NW 11.7 km/h 35.4 km/h 57.6% 0 mm 0 W/m2
06:29 4.9 °C -2.7 °C 1012.4 hPa NW 13.7 km/h 35.4 km/h 57.9% 0 mm 0 W/m2
06:34 4.8 °C -2.9 °C 1012.4 hPa NW 15.6 km/h 35.4 km/h 57.5% 0 mm 0 W/m2
06:39 4.7 °C -3.2 °C 1012.4 hPa NW 22.5 km/h 37 km/h 56.5% 0 mm 11 W/m2
06:44 4.7 °C -3.3 °C 1012.8 hPa NW 16.9 km/h 37 km/h 56.4% 0 mm 18 W/m2
06:49 4.6 °C -3.3 °C 1012.8 hPa NW 15 km/h 37 km/h 56.3% 0 mm 23 W/m2
06:54 4.6 °C -3.4 °C 1013.1 hPa NW 16.1 km/h 37 km/h 56.1% 0 mm 30 W/m2
06:59 4.6 °C -3.3 °C 1013.1 hPa NW 18.7 km/h 37 km/h 56.6% 0 mm 42 W/m2
07:04 4.6 °C -3.3 °C 1013.1 hPa WNW 13.7 km/h 37 km/h 56.5% 0 mm 23 W/m2
07:09 4.6 °C -3.3 °C 1013.4 hPa WNW 16.3 km/h 29 km/h 56.7% 0 mm 77 W/m2
07:14 4.7 °C -3.4 °C 1013.4 hPa WNW 19.2 km/h 45.1 km/h 55.7% 0 mm 95 W/m2
07:19 4.8 °C -3.4 °C 1013.4 hPa NW 18.5 km/h 45.1 km/h 55% 0 mm 95 W/m2
07:24 4.9 °C -3.6 °C 1013.8 hPa WNW 17.9 km/h 45.1 km/h 54% 0 mm 90 W/m2
07:29 4.9 °C -3.6 °C 1013.8 hPa WNW 17.7 km/h 45.1 km/h 54% 0 mm 116 W/m2
07:34 4.9 °C -3.6 °C 1013.8 hPa WNW 16.7 km/h 45.1 km/h 53.9% 0 mm 111 W/m2
07:39 4.9 °C -3.8 °C 1014.1 hPa WNW 19.2 km/h 32.2 km/h 53% 0 mm 88 W/m2
07:44 4.8 °C -3.8 °C 1014.1 hPa WNW 20 km/h 45.1 km/h 53.5% 0 mm 105 W/m2
07:49 4.7 °C -3.9 °C 1014.4 hPa NW 19.5 km/h 45.1 km/h 53.5% 0 mm 98 W/m2
07:54 4.7 °C -3.9 °C 1014.4 hPa NW 20.8 km/h 45.1 km/h 53.5% 0 mm 121 W/m2
07:59 4.7 °C -3.8 °C 1014.4 hPa NW 19.8 km/h 45.1 km/h 54% 0 mm 144 W/m2
08:00 4.7 °C -3.8 °C 1014.4 hPa NW 20.9 km/h 45.1 km/h 54% 0 mm 144 W/m2
08:09 4.8 °C -3.6 °C 1014.8 hPa NW 17.9 km/h 32.2 km/h 54.7% 0 mm 163 W/m2
08:14 4.8 °C -3.6 °C 1014.8 hPa NW 18.7 km/h 40.2 km/h 54.7% 0 mm 93 W/m2
08:19 4.8 °C -3.6 °C 1014.8 hPa WNW 21.9 km/h 40.2 km/h 54.3% 0 mm 137 W/m2
08:24 4.9 °C -3.6 °C 1014.8 hPa NW 15.4 km/h 40.2 km/h 54.1% 0 mm 320 W/m2
08:29 5.2 °C -3.3 °C 1015.1 hPa WNW 10.1 km/h 40.2 km/h 54.1% 0 mm 320 W/m2
08:34 5.6 °C -3.1 °C 1015.1 hPa WNW 16.4 km/h 40.2 km/h 53.7% 0 mm 325 W/m2
08:39 5.8 °C -3.3 °C 1015.5 hPa WNW 10.9 km/h 32.2 km/h 52.1% 0 mm 309 W/m2
08:44 5.9 °C -3.1 °C 1015.5 hPa NW 15.6 km/h 32.2 km/h 52.2% 0 mm 264 W/m2
08:49 5.9 °C -3.3 °C 1015.5 hPa NW 20.9 km/h 48.3 km/h 51.6% 0 mm 383 W/m2
08:54 5.8 °C -3.4 °C 1015.5 hPa WNW 15.9 km/h 48.3 km/h 51.7% 0 mm 383 W/m2
08:59 5.8 °C -3.3 °C 1015.5 hPa WNW 15.4 km/h 48.3 km/h 52% 0 mm 239 W/m2
09:04 5.8 °C -3.4 °C 1015.5 hPa WNW 18.5 km/h 48.3 km/h 51.6% 0 mm 236 W/m2
09:09 5.7 °C -3.4 °C 1015.8 hPa NW 13.8 km/h 35.4 km/h 51.7% 0 mm 323 W/m2
09:14 5.7 °C -3.5 °C 1015.8 hPa WNW 15.1 km/h 37 km/h 51.6% 0 mm 267 W/m2
09:19 5.7 °C -3.4 °C 1016.1 hPa WNW 14.2 km/h 37 km/h 51.7% 0 mm 353 W/m2
09:24 5.8 °C -3.7 °C 1016.1 hPa NW 21.2 km/h 46.7 km/h 50.3% 0 mm 320 W/m2
09:29 5.8 °C -3.8 °C 1016.1 hPa NW 15.8 km/h 46.7 km/h 50.1% 0 mm 353 W/m2
09:33 5.8 °C -3.6 °C 1016.1 hPa NW 11.3 km/h 46.7 km/h 51% 0 mm 323 W/m2
09:39 5.9 °C -3.6 °C 1016.1 hPa NW 13.2 km/h 27.4 km/h 50.3% 0 mm 362 W/m2
09:44 6.2 °C -3.4 °C 1016.1 hPa NW 13.7 km/h 33.8 km/h 50.4% 0 mm 494 W/m2
09:49 6.3 °C -3.2 °C 1016.1 hPa NNW 5.3 km/h 33.8 km/h 50.3% 0 mm 478 W/m2
09:54 6.5 °C -3.2 °C 1016.5 hPa NW 11.3 km/h 33.8 km/h 50% 0 mm 591 W/m2
09:59 6.5 °C -3.3 °C 1016.5 hPa NW 13.2 km/h 33.8 km/h 49.3% 0 mm 606 W/m2
10:04 6.4 °C -3.6 °C 1016.5 hPa WNW 12.2 km/h 33.8 km/h 48.5% 0 mm 606 W/m2
10:09 6.6 °C -3.6 °C 1016.5 hPa NW 13 km/h 24.1 km/h 48.2% 0 mm 494 W/m2
10:14 6.7 °C -3.6 °C 1016.5 hPa NW 14 km/h 24.1 km/h 47.7% 0 mm 482 W/m2
10:19 6.8 °C -3.5 °C 1016.5 hPa NNW 13.5 km/h 29 km/h 47.8% 0 mm 496 W/m2
10:24 6.8 °C -3.4 °C 1016.5 hPa NW 8 km/h 29 km/h 48% 0 mm 563 W/m2
10:29 7 °C -3.2 °C 1016.8 hPa NW 14.2 km/h 29 km/h 48.1% 0 mm 629 W/m2
10:34 7.1 °C -3.6 °C 1016.8 hPa NW 16.6 km/h 35.4 km/h 46.3% 0 mm 666 W/m2
10:39 7.1 °C -3.9 °C 1017.2 hPa NW 20.9 km/h 35.4 km/h 45.3% 0 mm 666 W/m2
10:44 7 °C -4.1 °C 1017.2 hPa NW 13.4 km/h 35.4 km/h 45.2% 0 mm 237 W/m2
10:49 7 °C -3.9 °C 1017.2 hPa NW 15.1 km/h 35.4 km/h 45.8% 0 mm 339 W/m2
10:54 7 °C -3.8 °C 1017.2 hPa WNW 12.1 km/h 35.4 km/h 45.9% 0 mm 171 W/m2
10:59 7.2 °C -3.9 °C 1017.2 hPa WNW 14.6 km/h 35.4 km/h 45.2% 0 mm 341 W/m2
11:04 7.3 °C -3.7 °C 1017.2 hPa WNW 8.5 km/h 35.4 km/h 45.4% 0 mm 615 W/m2
11:09 7.6 °C -3.6 °C 1017.5 hPa WNW 14 km/h 32.2 km/h 45.3% 0 mm 615 W/m2
11:14 7.6 °C -3.8 °C 1017.5 hPa WNW 11.1 km/h 32.2 km/h 44% 0 mm 471 W/m2
11:19 7.5 °C -4 °C 1017.2 hPa WNW 13.5 km/h 32.2 km/h 44% 0 mm 466 W/m2
11:24 7.4 °C -3.9 °C 1017.2 hPa NW 8.7 km/h 32.2 km/h 44.4% 0 mm 329 W/m2
11:29 7.5 °C -3.8 °C 1017.2 hPa WNW 13 km/h 32.2 km/h 44.6% 0 mm 329 W/m2
11:34 7.6 °C -3.9 °C 1017.2 hPa West 9 km/h 32.2 km/h 44% 0 mm 434 W/m2
11:39 7.5 °C -3.8 °C 1017.2 hPa WNW 12.9 km/h 27.4 km/h 44.7% 0 mm 434 W/m2
11:44 7.3 °C -3.9 °C 1017.5 hPa WNW 14.5 km/h 29 km/h 44.7% 0 mm 434 W/m2
11:49 7.2 °C -4 °C 1017.5 hPa NW 15 km/h 29 km/h 45% 0 mm 591 W/m2
11:54 6.9 °C -4.4 °C 1017.5 hPa WNW 15.1 km/h 29 km/h 44.3% 0 mm 313 W/m2
11:59 6.8 °C -4.6 °C 1017.2 hPa NW 15 km/h 29 km/h 44% 0 mm 315 W/m2
12:00 6.8 °C -4.6 °C 1017.2 hPa WNW 6.4 km/h 29 km/h 44% 0 mm 118 W/m2
12:09 6.9 °C -4.7 °C 1017.5 hPa WNW 18.7 km/h 30.6 km/h 43.6% 0 mm 171 W/m2
12:14 6.8 °C -4.8 °C 1017.5 hPa WNW 14 km/h 30.6 km/h 43.3% 0 mm 188 W/m2
12:19 6.8 °C -4.6 °C 1017.2 hPa WNW 15 km/h 30.6 km/h 44% 0 mm 104 W/m2
12:24 6.8 °C -4.5 °C 1017.5 hPa WNW 8.5 km/h 30.6 km/h 44.4% 0 mm 178 W/m2
12:29 6.8 °C -4.5 °C 1017.2 hPa WNW 13 km/h 30.6 km/h 44.2% 0 mm 262 W/m2
12:34 6.8 °C -4.6 °C 1017.2 hPa NW 11.7 km/h 30.6 km/h 43.8% 0 mm 174 W/m2
12:39 6.9 °C -4.5 °C 1017.2 hPa WNW 11.4 km/h 25.7 km/h 44% 0 mm 237 W/m2
12:44 7 °C -4.7 °C 1017.2 hPa WNW 13.4 km/h 27.4 km/h 43% 0 mm 109 W/m2
12:49 7 °C -4.6 °C 1017.2 hPa WNW 6.3 km/h 27.4 km/h 43.4% 0 mm 209 W/m2
12:54 7.1 °C -4.5 °C 1017.2 hPa West 5.3 km/h 27.4 km/h 43.5% 0 mm 251 W/m2
12:56 7.2 °C -4.3 °C 1016.8 hPa WNW 15.1 km/h 27.4 km/h 43.8% 0 mm 105 W/m2
13:04 7.3 °C -4.7 °C 1016.8 hPa NW 5.8 km/h 37 km/h 42.3% 0 mm 114 W/m2
13:09 7.4 °C -4.6 °C 1016.8 hPa WNW 6.1 km/h 16.1 km/h 42.3% 0 mm 338 W/m2
13:14 7.6 °C -4.7 °C 1016.8 hPa WNW 11.1 km/h 19.3 km/h 41.2% 0 mm 338 W/m2
13:19 7.7 °C -4.6 °C 1016.8 hPa WNW 9.3 km/h 20.9 km/h 41.5% 0 mm 98 W/m2
13:24 7.8 °C -4.4 °C 1016.5 hPa West 5.8 km/h 20.9 km/h 41.5% 0 mm 195 W/m2
13:29 7.9 °C -4.4 °C 1016.8 hPa WNW 7.4 km/h 20.9 km/h 41.3% 0 mm 202 W/m2
13:34 8 °C -4.6 °C 1016.5 hPa West 8.4 km/h 25.7 km/h 40.6% 0 mm 246 W/m2
13:39 7.9 °C -4.7 °C 1016.5 hPa WSW 3.4 km/h 25.7 km/h 40.2% 0 mm 167 W/m2
13:44 8 °C -4.6 °C 1016.5 hPa WNW 6.3 km/h 25.7 km/h 40.5% 0 mm 316 W/m2
13:49 8.1 °C -4.7 °C 1016.5 hPa NW 7.1 km/h 25.7 km/h 40.2% 0 mm 369 W/m2
13:54 8.1 °C -4.6 °C 1016.5 hPa WNW 12.1 km/h 25.7 km/h 40.1% 0 mm 197 W/m2
13:59 8.2 °C -4.8 °C 1016.5 hPa WSW 8.9 km/h 27.4 km/h 39.7% 0 mm 107 W/m2
14:04 8.1 °C -5 °C 1016.5 hPa WNW 12.2 km/h 27.4 km/h 39% 0 mm 413 W/m2
14:09 8.1 °C -4.9 °C 1016.5 hPa WNW 11.9 km/h 30.6 km/h 39.3% 0 mm 380 W/m2
14:14 8.1 °C -5.2 °C 1016.5 hPa WNW 12.2 km/h 30.6 km/h 38.5% 0 mm 160 W/m2
14:19 8.1 °C -5.1 °C 1016.5 hPa West 10.9 km/h 30.6 km/h 38.7% 0 mm 192 W/m2
14:24 8.1 °C -5.1 °C 1016.5 hPa WNW 19.3 km/h 35.4 km/h 38.8% 0 mm 383 W/m2
14:29 8.1 °C -5.3 °C 1016.5 hPa WNW 10.5 km/h 35.4 km/h 38.3% 0 mm 267 W/m2
14:34 8.2 °C -5.5 °C 1016.8 hPa WNW 12.2 km/h 35.4 km/h 37.3% 0 mm 211 W/m2
14:39 8.2 °C -5.9 °C 1016.8 hPa WNW 21.7 km/h 33.8 km/h 36% 0 mm 475 W/m2
14:44 8.2 °C -6 °C 1016.8 hPa WNW 17.7 km/h 38.6 km/h 36.1% 0 mm 531 W/m2
14:49 8.1 °C -5.9 °C 1016.8 hPa WNW 17.7 km/h 38.6 km/h 36.6% 0 mm 531 W/m2
14:54 8.1 °C -5.8 °C 1017.2 hPa WNW 17.7 km/h 38.6 km/h 36.9% 0 mm 527 W/m2
14:59 8.1 °C -5.7 °C 1017.2 hPa WNW 13.5 km/h 38.6 km/h 37.1% 0 mm 519 W/m2
15:04 8.1 °C -5.6 °C 1017.2 hPa WNW 6.9 km/h 38.6 km/h 37.6% 0 mm 179 W/m2
15:09 8.1 °C -5.2 °C 1017.2 hPa West 4.7 km/h 24.1 km/h 38.5% 0 mm 47 W/m2
15:14 8.1 °C -5.4 °C 1017.2 hPa West 4.5 km/h 24.1 km/h 37.8% 0 mm 39 W/m2
15:19 8.1 °C -5.3 °C 1017.2 hPa West 11.3 km/h 27.4 km/h 38.4% 0 mm 37 W/m2
15:23 8 °C -5.3 °C 1017.2 hPa WNW 10.1 km/h 27.4 km/h 38.4% 0 mm 35 W/m2
15:29 7.9 °C -5.4 °C 1017.2 hPa WNW 11.6 km/h 30.6 km/h 38.2% 0 mm 33 W/m2
15:34 7.8 °C -5.6 °C 1017.2 hPa WNW 12.7 km/h 32.2 km/h 38% 0 mm 33 W/m2
15:39 7.8 °C -5.6 °C 1017.2 hPa West 10 km/h 29 km/h 38% 0 mm 32 W/m2
15:44 7.8 °C -5.4 °C 1017.2 hPa WNW 7.2 km/h 29 km/h 38.5% 0 mm 32 W/m2
15:49 7.8 °C -5.6 °C 1017.5 hPa WNW 13.2 km/h 35.4 km/h 38% 0 mm 30 W/m2
15:54 7.8 °C -5.7 °C 1017.5 hPa WNW 9.7 km/h 35.4 km/h 38% 0 mm 30 W/m2
15:59 7.8 °C -5.7 °C 1017.5 hPa WNW 10 km/h 35.4 km/h 38% 0 mm 28 W/m2
16:00 7.8 °C -5.7 °C 1017.5 hPa WNW 9.7 km/h 35.4 km/h 38% 0 mm 28 W/m2
16:09 7.7 °C -5.7 °C 1017.5 hPa WNW 7.7 km/h 22.5 km/h 38.1% 0 mm 26 W/m2
16:14 7.7 °C -5.8 °C 1017.8 hPa NW 12.4 km/h 24.1 km/h 37.7% 0 mm 26 W/m2
16:19 7.7 °C -6 °C 1017.8 hPa NW 15 km/h 32.2 km/h 37.3% 0 mm 25 W/m2
16:24 7.6 °C -6.2 °C 1017.8 hPa WNW 12.7 km/h 32.2 km/h 36.8% 0 mm 25 W/m2
16:29 7.6 °C -6.2 °C 1017.8 hPa WNW 13.2 km/h 32.2 km/h 37% 0 mm 23 W/m2
16:34 7.4 °C -6.2 °C 1017.8 hPa WNW 11.6 km/h 32.2 km/h 37.4% 0 mm 23 W/m2
16:39 7.4 °C -6.1 °C 1017.8 hPa NW 8.7 km/h 25.7 km/h 37.8% 0 mm 21 W/m2
16:44 7.3 °C -6.1 °C 1018.2 hPa NW 11.4 km/h 25.7 km/h 38% 0 mm 21 W/m2
16:49 7.2 °C -6.3 °C 1018.2 hPa WNW 16.3 km/h 35.4 km/h 37.7% 0 mm 19 W/m2
16:54 7.1 °C -6.2 °C 1018.2 hPa WNW 6.8 km/h 35.4 km/h 38.2% 0 mm 19 W/m2
16:59 6.9 °C -6.2 °C 1018.2 hPa NW 10.8 km/h 35.4 km/h 38.5% 0 mm 18 W/m2
17:04 6.8 °C -6.3 °C 1018.5 hPa WNW 15.9 km/h 35.4 km/h 38.5% 0 mm 16 W/m2
17:09 6.8 °C -6.6 °C 1018.5 hPa WNW 13.5 km/h 30.6 km/h 38% 0 mm 14 W/m2
17:14 6.7 °C -6.4 °C 1018.5 hPa WNW 11.3 km/h 30.6 km/h 38.6% 0 mm 12 W/m2
17:19 6.6 °C -6.2 °C 1018.8 hPa NW 8.4 km/h 30.6 km/h 39.5% 0 mm 11 W/m2
17:24 6.5 °C -6.3 °C 1018.5 hPa NW 7.9 km/h 30.6 km/h 39.6% 0 mm 11 W/m2
17:29 6.4 °C -6.1 °C 1018.8 hPa WNW 11.1 km/h 30.6 km/h 40.4% 0 mm 9 W/m2
17:34 6.2 °C -6.3 °C 1018.8 hPa WNW 14.3 km/h 30.6 km/h 40.2% 0 mm 5 W/m2
17:39 6.1 °C -6.4 °C 1018.8 hPa WNW 11.7 km/h 29 km/h 40% 0 mm 0 W/m2
17:44 6.1 °C -6.3 °C 1018.8 hPa WNW 6.1 km/h 29 km/h 40.7% 0 mm 0 W/m2
17:49 5.9 °C -6.3 °C 1019.2 hPa WNW 7.9 km/h 29 km/h 40.9% 0 mm 0 W/m2
17:54 5.8 °C -6.3 °C 1019.2 hPa WNW 9.5 km/h 29 km/h 41.2% 0 mm 0 W/m2
17:59 5.7 °C -6.2 °C 1019.5 hPa WNW 9.2 km/h 29 km/h 42% 0 mm 0 W/m2
18:04 5.7 °C -6.3 °C 1019.5 hPa WNW 9.5 km/h 29 km/h 41.9% 0 mm 0 W/m2
18:09 5.6 °C -6.3 °C 1019.9 hPa WNW 9.7 km/h 20.9 km/h 42% 0 mm 0 W/m2
18:14 5.4 °C -6.4 °C 1019.9 hPa WNW 6.4 km/h 20.9 km/h 42% 0 mm 0 W/m2
18:19 5.4 °C -6.5 °C 1019.9 hPa WNW 9.8 km/h 20.9 km/h 42% 0 mm 0 W/m2
18:24 5.3 °C -6.6 °C 1019.9 hPa WNW 6.3 km/h 20.9 km/h 41.7% 0 mm 0 W/m2
18:29 5.3 °C -6.4 °C 1019.9 hPa WNW 6.3 km/h 22.5 km/h 42.7% 0 mm 0 W/m2
18:34 5.2 °C -6.7 °C 1020.2 hPa WNW 9.5 km/h 22.5 km/h 42.1% 0 mm 0 W/m2
18:39 5.1 °C -6.8 °C 1020.2 hPa WNW 8.4 km/h 19.3 km/h 42% 0 mm 0 W/m2
18:44 4.9 °C -6.7 °C 1020.2 hPa WNW 9 km/h 22.5 km/h 42.4% 0 mm 0 W/m2
18:49 4.9 °C -6.9 °C 1020.2 hPa WNW 6.9 km/h 22.5 km/h 42% 0 mm 0 W/m2
18:54 4.8 °C -6.9 °C 1020.2 hPa WNW 7.6 km/h 22.5 km/h 42.2% 0 mm 0 W/m2
18:59 4.8 °C -7.1 °C 1020.2 hPa WNW 6.3 km/h 22.5 km/h 42% 0 mm 0 W/m2
19:04 4.7 °C -7 °C 1020.2 hPa WNW 6.9 km/h 22.5 km/h 42.4% 0 mm 0 W/m2
19:09 4.7 °C -6.8 °C 1020.5 hPa WNW 3.5 km/h 16.1 km/h 43% 0 mm 0 W/m2
19:14 4.6 °C -6.9 °C 1020.5 hPa WNW 5.8 km/h 16.1 km/h 43% 0 mm 0 W/m2
19:19 4.5 °C -7 °C 1020.9 hPa WNW 1.1 km/h 16.1 km/h 43% 0 mm 0 W/m2
19:24 4.4 °C -6.9 °C 1020.9 hPa WNW 2.4 km/h 16.1 km/h 43.6% 0 mm 0 W/m2
19:29 4.3 °C -6.9 °C 1020.9 hPa WNW 1.9 km/h 16.1 km/h 43.9% 0 mm 0 W/m2
19:34 4.2 °C -7 °C 1020.9 hPa WNW 1.4 km/h 16.1 km/h 43.9% 0 mm 0 W/m2
19:39 4.2 °C -7 °C 1020.9 hPa WNW 0.2 km/h 8 km/h 44% 0 mm 0 W/m2
19:44 4.1 °C -7.1 °C 1021.2 hPa Calm   8 km/h 44% 0 mm 0 W/m2
19:49 4 °C -7.3 °C 1021.2 hPa Calm   8 km/h 43.4% 0 mm 0 W/m2
19:54 3.9 °C -7.4 °C 1021.2 hPa WNW 0.3 km/h 8 km/h 43.5% 0 mm 0 W/m2
19:59 3.8 °C -7.3 °C 1021.2 hPa NW 0.5 km/h 8 km/h 44% 0 mm 0 W/m2
20:00 3.8 °C -7.3 °C 1021.2 hPa Calm   8 km/h 44% 0 mm 0 W/m2
20:09 3.7 °C -7.3 °C 1021.2 hPa Calm   1.6 km/h 44.4% 0 mm 0 W/m2
20:14 3.7 °C -7.4 °C 1021.6 hPa NW 0.2 km/h 3.2 km/h 44.3% 0 mm 0 W/m2
20:19 3.6 °C -7.3 °C 1021.6 hPa NW 0.2 km/h 3.2 km/h 44.8% 0 mm 0 W/m2
20:24 3.5 °C -7.3 °C 1021.6 hPa NW 0.3 km/h 3.2 km/h 45% 0 mm 0 W/m2
20:29 3.4 °C -7.3 °C 1021.6 hPa Calm   3.2 km/h 45.2% 0 mm 0 W/m2
20:34 3.3 °C -7.3 °C 1021.6 hPa Calm   3.2 km/h 45.7% 0 mm 0 W/m2
20:39 3.2 °C -7.4 °C 1021.6 hPa Calm     45.6% 0 mm 0 W/m2
20:44 3.1 °C -7.4 °C 1021.6 hPa Calm     46% 0 mm 0 W/m2
20:49 3 °C -7.5 °C 1021.9 hPa Calm     46% 0 mm 0 W/m2
20:54 2.9 °C -7.6 °C 1021.9 hPa Calm     46% 0 mm 0 W/m2
20:59 2.7 °C -7.4 °C 1021.9 hPa Calm     47% 0 mm 0 W/m2
21:04 2.6 °C -7.5 °C 1022.2 hPa Calm     47.2% 0 mm 0 W/m2
21:09 2.5 °C -7.4 °C 1022.2 hPa Calm     48% 0 mm 0 W/m2
21:14 2.4 °C -7.3 °C 1022.2 hPa Calm     48.7% 0 mm 0 W/m2
21:19 2.3 °C -7.3 °C 1022.2 hPa Calm     49% 0 mm 0 W/m2
21:24 2.2 °C -7.3 °C 1022.2 hPa Calm   1.6 km/h 49.5% 0 mm 0 W/m2
21:29 2.1 °C -7.3 °C 1022.6 hPa Calm   1.6 km/h 50% 0 mm 0 W/m2
21:34 1.9 °C -7.1 °C 1022.6 hPa NW 0.2 km/h 3.2 km/h 51% 0 mm 0 W/m2
21:39 1.8 °C -7.2 °C 1022.6 hPa NW 0.2 km/h 3.2 km/h 51.4% 0 mm 0 W/m2
21:44 1.7 °C -6.9 °C 1022.6 hPa NW 0.2 km/h 3.2 km/h 52.6% 0 mm 0 W/m2
21:49 1.7 °C -6.9 °C 1022.6 hPa NW 0.3 km/h 3.2 km/h 53% 0 mm 0 W/m2
21:54 1.6 °C -6.7 °C 1022.9 hPa Calm   3.2 km/h 54% 0 mm 0 W/m2
21:59 1.5 °C -6.8 °C 1022.9 hPa Calm   3.2 km/h 54% 0 mm 0 W/m2
22:04 1.4 °C -6.8 °C 1022.6 hPa Calm   3.2 km/h 54% 0 mm 0 W/m2
22:09 1.4 °C -6.8 °C 1022.6 hPa Calm     54.3% 0 mm 0 W/m2
22:14 1.3 °C -6.7 °C 1022.9 hPa Calm     55% 0 mm 0 W/m2
22:19 1.3 °C -6.7 °C 1022.9 hPa Calm   1.6 km/h 55% 0 mm 0 W/m2
22:24 1.2 °C -6.7 °C 1022.9 hPa NW 0.2 km/h 1.6 km/h 55.3% 0 mm 0 W/m2
22:28 1.2 °C -6.8 °C 1022.9 hPa Calm   1.6 km/h 55.2% 0 mm 0 W/m2
22:34 1.2 °C -6.7 °C 1023.2 hPa NW 0.2 km/h 1.6 km/h 55.7% 0 mm 0 W/m2
22:39 1.1 °C -6.7 °C 1023.2 hPa Calm   1.6 km/h 56% 0 mm 0 W/m2
22:44 1.1 °C -6.8 °C 1023.2 hPa Calm   1.6 km/h 56% 0 mm 0 W/m2
22:49 1 °C -6.8 °C 1023.2 hPa NW 0.2 km/h 1.6 km/h 56% 0 mm 0 W/m2
22:54 0.9 °C -6.7 °C 1023.2 hPa Calm   1.6 km/h 56.6% 0 mm 0 W/m2
22:59 0.8 °C -6.6 °C 1023.2 hPa Calm   1.6 km/h 57.4% 0 mm 0 W/m2
23:00 0.8 °C -6.6 °C 1023.2 hPa Calm   1.6 km/h 58% 0 mm 0 W/m2
23:09 0.7 °C -6.6 °C 1023.2 hPa NNW 2.4 km/h 19.3 km/h 58.5% 0 mm 0 W/m2
23:14 0.6 °C -6.6 °C 1022.9 hPa NNW 0.6 km/h 19.3 km/h 58.7% 0 mm 0 W/m2
23:19 0.6 °C -6.6 °C 1022.9 hPa NNW 4 km/h 19.3 km/h 58.9% 0 mm 0 W/m2
23:24 0.6 °C -6.6 °C 1022.9 hPa NNW 2.4 km/h 19.3 km/h 58.3% 0 mm 0 W/m2
23:29 0.6 °C -6.7 °C 1022.6 hPa North 1.1 km/h 19.3 km/h 58% 0 mm 0 W/m2
23:34 0.7 °C -6.7 °C 1022.6 hPa NNW 3.7 km/h 19.3 km/h 58% 0 mm 0 W/m2
23:39 0.7 °C -6.8 °C 1022.6 hPa NNW 8 km/h 16.1 km/h 57.3% 0 mm 0 W/m2
23:44 0.7 °C -6.8 °C 1022.9 hPa NW 6.4 km/h 16.1 km/h 57% 0 mm 0 W/m2
23:49 0.8 °C -6.8 °C 1022.9 hPa NW 5.6 km/h 20.9 km/h 56.8% 0 mm 0 W/m2
23:54 0.8 °C -6.9 °C 1023.2 hPa NW 4.8 km/h 20.9 km/h 56.2% 0 mm 0 W/m2
23:59 0.8 °C -6.9 °C 1023.2 hPa NW 0.6 km/h 20.9 km/h 56% 0 mm 0 W/m2
Hartford County Weather
Compliments of Weather Underground - 4 mb